Time;durP1;ratioP1;P1;durP2;ratioP2;P2;SDS_P1;SDS_P2;PMS_P1;PMS_P2;Temp;Humidity;BMP_temperature;BMP_pressure;BME280_temperature;BME280_humidity;BME280_pressure;Samples;Min_cycle;Max_cycle;Signal;HPM_P1;HPM_P2
2022/04/03 00:00:11;;;;;;;38.30;16.27;;;;;;;;;;5070753;28;20737;-62
2022/04/03 00:02:36;;;;;;;42.95;14.73;;;;;;;;;;5066670;28;20036;-61
2022/04/03 00:05:03;;;;;;;35.17;14.95;;;;;;;;;;5083495;28;20078;-61
2022/04/03 00:07:29;;;;;;;29.90;13.27;;;;;;;;;;5069405;28;20127;-61
2022/04/03 00:09:54;;;;;;;31.30;11.75;;;;;;;;;;5068318;28;20140;-61
2022/04/03 00:12:20;;;;;;;33.17;12.50;;;;;;;;;;5067269;28;20040;-60
2022/04/03 00:14:46;;;;;;;32.70;13.40;;;;;;;;;;5072447;28;20550;-60
2022/04/03 00:17:11;;;;;;;32.25;13.43;;;;;;;;;;5062646;28;20086;-61
2022/04/03 00:19:37;;;;;;;33.97;13.23;;;;;;;;;;5066918;28;20039;-60
2022/04/03 00:22:03;;;;;;;32.78;12.73;;;;;;;;;;5066199;28;20024;-61
2022/04/03 00:24:29;;;;;;;34.65;12.23;;;;;;;;;;5071132;28;20032;-60
2022/04/03 00:26:54;;;;;;;25.27;11.80;;;;;;;;;;5067774;28;20052;-61
2022/04/03 00:29:20;;;;;;;35.92;13.00;;;;;;;;;;5071780;28;20123;-61
2022/04/03 00:31:45;;;;;;;37.85;13.93;;;;;;;;;;5065638;28;20040;-60
2022/04/03 00:34:11;;;;;;;32.38;14.35;;;;;;;;;;5081045;28;20032;-62
2022/04/03 00:36:36;;;;;;;37.25;13.65;;;;;;;;;;5073847;28;20028;-61
2022/04/03 00:39:02;;;;;;;27.02;13.15;;;;;;;;;;5068315;28;20108;-59
2022/04/03 00:41:28;;;;;;;36.47;15.27;;;;;;;;;;5067785;28;20135;-61
2022/04/03 00:43:54;;;;;;;28.30;13.63;;;;;;;;;;5069621;28;20040;-61
2022/04/03 00:46:23;;;;;;;37.40;14.32;;;;;;;;;;5071671;28;20082;-61
2022/04/03 00:48:50;;;;;;;27.33;11.90;;;;;;;;;;5065864;28;20039;-61
2022/04/03 00:51:17;;;;;;;32.90;13.30;;;;;;;;;;5060633;28;20485;-61
2022/04/03 00:53:43;;;;;;;36.90;14.48;;;;;;;;;;5067598;28;20036;-61
2022/04/03 00:56:10;;;;;;;29.85;14.52;;;;;;;;;;5065765;28;20525;-60
2022/04/03 00:58:38;;;;;;;28.27;13.07;;;;;;;;;;5068437;28;20498;-60
2022/04/03 01:01:04;;;;;;;30.77;15.55;;;;;;;;;;5066298;28;20414;-61
2022/04/03 01:03:30;;;;;;;46.17;17.10;;;;;;;;;;5070106;28;20027;-61
2022/04/03 01:05:56;;;;;;;34.22;16.15;;;;;;;;;;5069947;28;20029;-61
2022/04/03 01:08:24;;;;;;;31.38;17.00;;;;;;;;;;5064067;28;20453;-61
2022/04/03 01:10:50;;;;;;;35.22;17.75;;;;;;;;;;5071655;28;20123;-61
2022/04/03 01:13:15;;;;;;;36.80;18.55;;;;;;;;;;5079042;28;20092;-60
2022/04/03 01:15:41;;;;;;;38.95;17.05;;;;;;;;;;5073731;28;20436;-60
2022/04/03 01:18:07;;;;;;;35.20;14.30;;;;;;;;;;5065435;28;20029;-61
2022/04/03 01:20:32;;;;;;;27.83;12.98;;;;;;;;;;5069472;28;20130;-60
2022/04/03 01:22:58;;;;;;;27.10;12.07;;;;;;;;;;5071117;28;20032;-61
2022/04/03 01:25:24;;;;;;;28.42;11.85;;;;;;;;;;5065538;28;20039;-60
2022/04/03 01:27:49;;;;;;;23.17;10.25;;;;;;;;;;5066356;28;20033;-60
2022/04/03 01:30:15;;;;;;;18.75;9.02;;;;;;;;;;5065541;28;20508;-61
2022/04/03 01:32:40;;;;;;;19.00;9.02;;;;;;;;;;5069527;28;20513;-61
2022/04/03 01:35:07;;;;;;;18.70;8.45;;;;;;;;;;5058503;28;20510;-61
2022/04/03 01:37:32;;;;;;;20.08;7.28;;;;;;;;;;5068609;28;20415;-61
2022/04/03 01:39:58;;;;;;;24.70;9.15;;;;;;;;;;5065112;28;20025;-61
2022/04/03 01:42:24;;;;;;;16.80;8.32;;;;;;;;;;5065977;28;20037;-61
2022/04/03 01:44:49;;;;;;;21.33;9.55;;;;;;;;;;5066022;28;20036;-61
2022/04/03 01:47:15;;;;;;;20.88;9.52;;;;;;;;;;5070272;28;20510;-61
2022/04/03 01:49:41;;;;;;;21.05;8.63;;;;;;;;;;5064482;28;20032;-61
2022/04/03 01:52:06;;;;;;;19.90;9.55;;;;;;;;;;5063420;28;20043;-62
2022/04/03 01:54:32;;;;;;;17.75;8.63;;;;;;;;;;5064160;28;20151;-61
2022/04/03 01:56:57;;;;;;;25.60;8.77;;;;;;;;;;5068755;28;20040;-61
2022/04/03 01:59:23;;;;;;;20.63;8.63;;;;;;;;;;5065743;28;20121;-61
2022/04/03 02:01:48;;;;;;;27.05;9.43;;;;;;;;;;5068652;28;20032;-61
2022/04/03 02:04:14;;;;;;;20.17;8.95;;;;;;;;;;5065792;28;20121;-61
2022/04/03 02:06:40;;;;;;;21.48;8.70;;;;;;;;;;5066391;28;20095;-61
2022/04/03 02:09:07;;;;;;;19.33;8.70;;;;;;;;;;5072658;28;20040;-61
2022/04/03 02:11:34;;;;;;;22.95;9.38;;;;;;;;;;5069926;28;20087;-61
2022/04/03 02:14:00;;;;;;;26.08;9.65;;;;;;;;;;5070824;28;20123;-61
2022/04/03 02:16:26;;;;;;;24.52;9.65;;;;;;;;;;5069545;28;20617;-61
2022/04/03 02:18:51;;;;;;;28.00;10.10;;;;;;;;;;5066268;28;20032;-61
2022/04/03 02:21:17;;;;;;;22.95;9.65;;;;;;;;;;5060836;28;20127;-60
2022/04/03 02:23:43;;;;;;;24.50;10.48;;;;;;;;;;5059828;28;20123;-61
2022/04/03 02:26:09;;;;;;;26.30;10.60;;;;;;;;;;5051793;28;20036;-61
2022/04/03 02:28:35;;;;;;;21.52;8.90;;;;;;;;;;5063286;28;20024;-61
2022/04/03 02:31:01;;;;;;;29.00;9.05;;;;;;;;;;5065802;28;20559;-61
2022/04/03 02:33:26;;;;;;;19.55;8.20;;;;;;;;;;5064361;28;20044;-61
2022/04/03 02:35:52;;;;;;;29.65;8.93;;;;;;;;;;5063091;28;20082;-61
2022/04/03 02:38:18;;;;;;;16.13;6.88;;;;;;;;;;5064393;28;20482;-61
2022/04/03 02:40:44;;;;;;;23.00;7.95;;;;;;;;;;5061486;28;20036;-61
2022/04/03 02:43:10;;;;;;;16.92;7.22;;;;;;;;;;5064541;28;20441;-61
2022/04/03 02:45:36;;;;;;;17.23;6.90;;;;;;;;;;5063397;28;20496;-60
2022/04/03 02:48:02;;;;;;;16.10;7.70;;;;;;;;;;5067649;28;20123;-59
2022/04/03 02:50:27;;;;;;;15.60;6.63;;;;;;;;;;5060199;28;20386;-59
2022/04/03 02:52:54;;;;;;;23.13;8.18;;;;;;;;;;5068906;28;20040;-61
2022/04/03 02:55:20;;;;;;;14.70;6.53;;;;;;;;;;5070512;28;20028;-61
2022/04/03 02:57:46;;;;;;;21.05;8.15;;;;;;;;;;5065402;28;20395;-61
2022/04/03 03:00:17;;;;;;;14.38;8.07;;;;;;;;;;5068502;28;20708;-60
2022/04/03 03:02:51;;;;;;;13.93;6.13;;;;;;;;;;5075819;28;20600;-61
2022/04/03 03:05:17;;;;;;;17.38;6.60;;;;;;;;;;5071127;28;20024;-61
2022/04/03 03:07:45;;;;;;;20.42;6.65;;;;;;;;;;5074151;28;20181;-61
2022/04/03 03:10:14;;;;;;;13.70;5.97;;;;;;;;;;5073039;28;20044;-61
2022/04/03 03:12:40;;;;;;;12.68;6.63;;;;;;;;;;5072959;28;20107;-61
2022/04/03 03:15:06;;;;;;;15.50;6.90;;;;;;;;;;5069012;28;20518;-61
2022/04/03 03:17:31;;;;;;;14.38;6.28;;;;;;;;;;5073199;28;20024;-61
2022/04/03 03:19:58;;;;;;;12.98;6.43;;;;;;;;;;5075796;28;20039;-61
2022/04/03 03:22:24;;;;;;;16.67;7.97;;;;;;;;;;5072653;28;20032;-60
2022/04/03 03:24:49;;;;;;;15.95;7.40;;;;;;;;;;5072919;28;20027;-61
2022/04/03 03:27:15;;;;;;;14.75;7.43;;;;;;;;;;5071196;28;20078;-61
2022/04/03 03:29:40;;;;;;;15.27;6.53;;;;;;;;;;5068086;28;20032;-61
2022/04/03 03:32:07;;;;;;;15.43;6.93;;;;;;;;;;5075980;28;20051;-61
2022/04/03 03:34:34;;;;;;;14.50;6.18;;;;;;;;;;5076655;28;20055;-61
2022/04/03 03:37:00;;;;;;;13.23;5.82;;;;;;;;;;5071073;28;20036;-61
2022/04/03 03:39:27;;;;;;;10.65;6.13;;;;;;;;;;5065794;28;20090;-61
2022/04/03 03:41:55;;;;;;;17.23;6.03;;;;;;;;;;5074278;28;20101;-61
2022/04/03 03:44:21;;;;;;;17.75;6.97;;;;;;;;;;5078477;28;20085;-62
2022/04/03 03:46:47;;;;;;;14.02;6.32;;;;;;;;;;5078289;28;20159;-61
2022/04/03 03:49:14;;;;;;;16.40;6.25;;;;;;;;;;5072876;28;20576;-61
2022/04/03 03:51:40;;;;;;;16.17;6.20;;;;;;;;;;5062747;28;20147;-61
2022/04/03 03:54:06;;;;;;;17.10;6.25;;;;;;;;;;5068959;28;20542;-61
2022/04/03 03:56:32;;;;;;;14.23;6.80;;;;;;;;;;5072754;28;20035;-61
2022/04/03 03:59:00;;;;;;;13.02;5.70;;;;;;;;;;5068286;28;20038;-61
2022/04/03 04:01:27;;;;;;;14.98;6.90;;;;;;;;;;5070661;28;20028;-61
2022/04/03 04:03:52;;;;;;;14.73;6.75;;;;;;;;;;5084230;28;20036;-61
2022/04/03 04:06:18;;;;;;;12.95;6.20;;;;;;;;;;5067152;28;20388;-61
2022/04/03 04:08:43;;;;;;;15.93;6.35;;;;;;;;;;5063426;28;20049;-60
2022/04/03 04:11:09;;;;;;;12.27;6.25;;;;;;;;;;5067768;28;20036;-61
2022/04/03 04:13:35;;;;;;;17.83;6.65;;;;;;;;;;5069489;28;20017;-61
2022/04/03 04:16:01;;;;;;;19.02;7.50;;;;;;;;;;5070339;28;20403;-61
2022/04/03 04:18:26;;;;;;;16.38;6.93;;;;;;;;;;5068839;28;20055;-61
2022/04/03 04:20:53;;;;;;;15.30;6.50;;;;;;;;;;5068772;28;20033;-61
2022/04/03 04:23:21;;;;;;;14.98;6.60;;;;;;;;;;5071319;28;20028;-61
2022/04/03 04:25:47;;;;;;;21.23;7.63;;;;;;;;;;5066791;28;20612;-61
2022/04/03 04:28:13;;;;;;;20.77;7.65;;;;;;;;;;5068877;28;20254;-61
2022/04/03 04:30:39;;;;;;;18.40;7.35;;;;;;;;;;5066642;28;20036;-61
2022/04/03 04:33:08;;;;;;;22.58;7.93;;;;;;;;;;5068506;28;20548;-60
2022/04/03 04:35:34;;;;;;;23.23;9.52;;;;;;;;;;5068758;28;20032;-61
2022/04/03 04:38:00;;;;;;;22.20;9.32;;;;;;;;;;5067457;28;20043;-61
2022/04/03 04:40:26;;;;;;;22.30;9.73;;;;;;;;;;5068280;28;20557;-61
2022/04/03 04:42:51;;;;;;;22.75;10.18;;;;;;;;;;5069280;28;22441;-61
2022/04/03 04:45:17;;;;;;;24.52;10.82;;;;;;;;;;5069657;28;20024;-60
2022/04/03 04:47:43;;;;;;;21.58;10.75;;;;;;;;;;5073617;28;20064;-61
2022/04/03 04:50:11;;;;;;;28.85;12.20;;;;;;;;;;5070985;28;20028;-61
2022/04/03 04:52:39;;;;;;;26.25;11.05;;;;;;;;;;5060594;28;20100;-61
2022/04/03 04:55:05;;;;;;;27.02;11.70;;;;;;;;;;5069189;28;20538;-61
2022/04/03 04:57:37;;;;;;;25.33;10.90;;;;;;;;;;5071277;28;20048;-60
2022/04/03 05:00:09;;;;;;;32.33;13.18;;;;;;;;;;5070065;28;20033;-60
2022/04/03 05:02:34;;;;;;;27.60;11.65;;;;;;;;;;5067438;28;20494;-61
2022/04/03 05:05:00;;;;;;;22.08;11.48;;;;;;;;;;5065034;28;20115;-60
2022/04/03 05:07:26;;;;;;;29.85;13.13;;;;;;;;;;5065406;28;20040;-60
2022/04/03 05:09:52;;;;;;;27.85;11.88;;;;;;;;;;5069032;28;20044;-60
2022/04/03 05:12:18;;;;;;;30.35;12.20;;;;;;;;;;5062940;28;20033;-61
2022/04/03 05:14:44;;;;;;;22.33;11.48;;;;;;;;;;5059845;28;20442;-60
2022/04/03 05:17:10;;;;;;;25.45;11.32;;;;;;;;;;5062850;28;20032;-60
2022/04/03 05:19:36;;;;;;;23.38;11.63;;;;;;;;;;5067431;28;20846;-60
2022/04/03 05:22:02;;;;;;;29.75;11.02;;;;;;;;;;5057285;28;20857;-60
2022/04/03 05:24:28;;;;;;;28.38;11.38;;;;;;;;;;5068435;28;20072;-61
2022/04/03 05:26:54;;;;;;;24.88;11.30;;;;;;;;;;5065456;28;20275;-61
2022/04/03 05:29:19;;;;;;;30.02;11.85;;;;;;;;;;5063256;28;20089;-61
2022/04/03 05:31:45;;;;;;;26.20;10.52;;;;;;;;;;5062083;28;20045;-61
2022/04/03 05:34:11;;;;;;;18.30;9.85;;;;;;;;;;5062220;28;20067;-61
2022/04/03 05:36:37;;;;;;;21.17;9.32;;;;;;;;;;5069177;28;20032;-61
2022/04/03 05:39:06;;;;;;;24.15;10.38;;;;;;;;;;5064635;28;20055;-61
2022/04/03 05:41:34;;;;;;;19.70;9.57;;;;;;;;;;5063198;28;20548;-60
2022/04/03 05:44:01;;;;;;;26.73;9.75;;;;;;;;;;5059836;28;20048;-61
2022/04/03 05:46:27;;;;;;;17.38;9.18;;;;;;;;;;5067177;28;20047;-61
2022/04/03 05:48:52;;;;;;;20.23;8.93;;;;;;;;;;5054808;28;20032;-60
2022/04/03 05:51:18;;;;;;;22.13;9.52;;;;;;;;;;5060476;28;20043;-60
2022/04/03 05:53:43;;;;;;;21.23;9.80;;;;;;;;;;5068470;28;20060;-60
2022/04/03 05:56:09;;;;;;;21.63;9.57;;;;;;;;;;5060811;28;20031;-61
2022/04/03 05:58:35;;;;;;;26.15;10.30;;;;;;;;;;5062825;28;20020;-60
2022/04/03 06:01:01;;;;;;;16.80;8.75;;;;;;;;;;5063250;28;20055;-61
2022/04/03 06:03:26;;;;;;;22.58;8.73;;;;;;;;;;5066851;28;20501;-61
2022/04/03 06:05:52;;;;;;;18.92;8.15;;;;;;;;;;5059930;28;20143;-62
2022/04/03 06:08:18;;;;;;;18.58;7.93;;;;;;;;;;5059659;28;20127;-62
2022/04/03 06:10:44;;;;;;;16.30;8.10;;;;;;;;;;5062096;28;20271;-61
2022/04/03 06:13:14;;;;;;;17.17;8.00;;;;;;;;;;5061480;28;20076;-61
2022/04/03 06:15:43;;;;;;;19.45;7.18;;;;;;;;;;5062631;28;20067;-61
2022/04/03 06:18:14;;;;;;;18.55;7.57;;;;;;;;;;5064230;28;20063;-60
2022/04/03 06:20:41;;;;;;;18.05;7.82;;;;;;;;;;5063671;28;20075;-60
2022/04/03 06:23:14;;;;;;;18.48;8.10;;;;;;;;;;5060849;28;20040;-61
2022/04/03 06:25:40;;;;;;;18.27;7.47;;;;;;;;;;5068407;28;20395;-60
2022/04/03 06:28:05;;;;;;;20.08;7.88;;;;;;;;;;5062497;28;20028;-60
2022/04/03 06:30:31;;;;;;;16.30;7.50;;;;;;;;;;5060299;28;20021;-60
2022/04/03 06:32:57;;;;;;;21.23;7.40;;;;;;;;;;5065876;28;20067;-60
2022/04/03 06:35:22;;;;;;;16.58;7.82;;;;;;;;;;5062506;28;20032;-60
2022/04/03 06:37:48;;;;;;;17.80;7.00;;;;;;;;;;5062905;28;20037;-60
2022/04/03 06:40:13;;;;;;;15.68;6.95;;;;;;;;;;5062851;28;20039;-60
2022/04/03 06:42:40;;;;;;;15.90;7.68;;;;;;;;;;5065225;28;20437;-61
2022/04/03 06:45:06;;;;;;;14.02;7.45;;;;;;;;;;5064246;28;20041;-60
2022/04/03 06:47:32;;;;;;;13.75;6.63;;;;;;;;;;5063793;28;20040;-60
2022/04/03 06:49:58;;;;;;;14.80;7.40;;;;;;;;;;5062601;28;20032;-61
2022/04/03 06:52:24;;;;;;;18.00;6.70;;;;;;;;;;5057078;28;20028;-60
2022/04/03 06:54:49;;;;;;;16.17;6.45;;;;;;;;;;5065808;28;20028;-60
2022/04/03 06:57:15;;;;;;;13.05;6.90;;;;;;;;;;5060913;28;20036;-61
2022/04/03 06:59:45;;;;;;;15.32;7.05;;;;;;;;;;5063220;28;20044;-60
2022/04/03 07:02:10;;;;;;;17.80;6.63;;;;;;;;;;5062411;28;20016;-60
2022/04/03 07:04:36;;;;;;;20.33;6.95;;;;;;;;;;5057548;28;20028;-61
2022/04/03 07:07:03;;;;;;;34.78;7.65;;;;;;;;;;5056752;28;20063;-61
2022/04/03 07:09:28;;;;;;;14.13;6.18;;;;;;;;;;5060894;28;20151;-61
2022/04/03 07:11:54;;;;;;;10.55;5.80;;;;;;;;;;5059102;28;20051;-60
2022/04/03 07:14:19;;;;;;;16.55;6.93;;;;;;;;;;5062659;28;20058;-60
2022/04/03 07:16:45;;;;;;;13.52;5.72;;;;;;;;;;5062382;28;20078;-60
2022/04/03 07:19:11;;;;;;;14.45;6.68;;;;;;;;;;5059728;28;20962;-60
2022/04/03 07:21:37;;;;;;;14.15;6.53;;;;;;;;;;5059564;28;20048;-60
2022/04/03 07:24:04;;;;;;;13.20;5.97;;;;;;;;;;5058281;28;20032;-60
2022/04/03 07:26:33;;;;;;;18.95;6.00;;;;;;;;;;5061274;28;20085;-60
2022/04/03 07:28:59;;;;;;;13.05;5.90;;;;;;;;;;5059574;28;20453;-60
2022/04/03 07:31:25;;;;;;;13.60;6.15;;;;;;;;;;5061089;28;20025;-61
2022/04/03 07:33:51;;;;;;;11.88;5.90;;;;;;;;;;5064723;28;20040;-61
2022/04/03 07:36:17;;;;;;;8.73;5.57;;;;;;;;;;5063077;28;20078;-60
2022/04/03 07:38:42;;;;;;;11.43;5.18;;;;;;;;;;5065467;28;20461;-60
2022/04/03 07:41:08;;;;;;;17.55;4.82;;;;;;;;;;5070293;28;20575;-61
2022/04/03 07:43:34;;;;;;;12.50;5.40;;;;;;;;;;5071037;28;20434;-60
2022/04/03 07:45:59;;;;;;;13.55;5.40;;;;;;;;;;5065080;28;20113;-60
2022/04/03 07:48:25;;;;;;;11.10;4.68;;;;;;;;;;5068957;28;20475;-60
2022/04/03 07:50:51;;;;;;;9.45;4.38;;;;;;;;;;5062549;28;20039;-60
2022/04/03 07:53:16;;;;;;;11.45;4.47;;;;;;;;;;5067393;28;20517;-61
2022/04/03 07:55:42;;;;;;;8.50;4.80;;;;;;;;;;5061300;28;20035;-60
2022/04/03 07:58:07;;;;;;;9.85;5.22;;;;;;;;;;5060927;28;20560;-60
2022/04/03 08:00:33;;;;;;;10.35;4.50;;;;;;;;;;5058731;28;20043;-60
2022/04/03 08:02:59;;;;;;;11.30;5.47;;;;;;;;;;5059433;28;20040;-60
2022/04/03 08:05:25;;;;;;;13.60;5.93;;;;;;;;;;5060004;28;20498;-60
2022/04/03 08:07:50;;;;;;;15.27;6.88;;;;;;;;;;5061937;28;20066;-61
2022/04/03 08:10:18;;;;;;;10.77;5.32;;;;;;;;;;5063025;28;20616;-60
2022/04/03 08:12:45;;;;;;;10.15;5.68;;;;;;;;;;5058972;28;20081;-60
2022/04/03 08:15:12;;;;;;;11.13;4.43;;;;;;;;;;5061426;28;20809;-60
2022/04/03 08:17:38;;;;;;;19.23;6.15;;;;;;;;;;5060215;28;20082;-60
2022/04/03 08:20:06;;;;;;;10.05;5.00;;;;;;;;;;5063441;28;20028;-60
2022/04/03 08:22:31;;;;;;;12.75;4.63;;;;;;;;;;5061472;28;20035;-61
2022/04/03 08:24:57;;;;;;;9.93;4.22;;;;;;;;;;5062677;28;20031;-61
2022/04/03 08:27:23;;;;;;;9.95;3.38;;;;;;;;;;5061265;28;20063;-61
2022/04/03 08:29:49;;;;;;;6.45;2.75;;;;;;;;;;5059141;28;20108;-60
2022/04/03 08:32:15;;;;;;;13.80;4.00;;;;;;;;;;5062900;28;20028;-60
2022/04/03 08:34:41;;;;;;;7.22;3.53;;;;;;;;;;5062245;28;20032;-60
2022/04/03 08:37:06;;;;;;;10.50;4.43;;;;;;;;;;5060131;28;20117;-60
2022/04/03 08:39:32;;;;;;;7.15;3.90;;;;;;;;;;5065273;28;20028;-60
2022/04/03 08:41:58;;;;;;;7.18;3.47;;;;;;;;;;5065414;28;20732;-59
2022/04/03 08:44:24;;;;;;;10.88;5.32;;;;;;;;;;5064581;28;20060;-60
2022/04/03 08:46:50;;;;;;;11.68;5.57;;;;;;;;;;5060064;28;20031;-60
2022/04/03 08:49:17;;;;;;;15.00;4.85;;;;;;;;;;5066859;28;20074;-60
2022/04/03 08:51:43;;;;;;;14.27;5.38;;;;;;;;;;5059686;28;20035;-60
2022/04/03 08:54:10;;;;;;;9.15;4.90;;;;;;;;;;5060923;28;20036;-60
2022/04/03 08:56:36;;;;;;;8.02;3.67;;;;;;;;;;5064913;28;20497;-60
2022/04/03 08:59:02;;;;;;;14.32;5.47;;;;;;;;;;5067244;28;20119;-60
2022/04/03 09:01:29;;;;;;;8.02;4.20;;;;;;;;;;5065696;28;20029;-60
2022/04/03 09:03:55;;;;;;;11.00;4.45;;;;;;;;;;5067677;28;20041;-60
2022/04/03 09:06:23;;;;;;;13.10;4.97;;;;;;;;;;5064973;28;20028;-60
2022/04/03 09:08:49;;;;;;;10.23;4.75;;;;;;;;;;5064617;28;20044;-60
2022/04/03 09:11:16;;;;;;;14.05;5.68;;;;;;;;;;5059578;28;20044;-58
2022/04/03 09:13:43;;;;;;;10.93;4.45;;;;;;;;;;5065973;28;20040;-60
2022/04/03 09:16:09;;;;;;;20.35;6.25;;;;;;;;;;5064401;28;20039;-59
2022/04/03 09:18:45;;;;;;;10.02;4.80;;;;;;;;;;5066489;28;20040;-60
2022/04/03 09:21:26;;;;;;;10.23;4.65;;;;;;;;;;5067780;28;20029;-60
2022/04/03 09:24:11;;;;;;;9.48;5.30;;;;;;;;;;5066002;28;20033;-60
2022/04/03 09:26:39;;;;;;;7.70;4.50;;;;;;;;;;5064340;28;20028;-59
2022/04/03 09:29:15;;;;;;;9.95;5.28;;;;;;;;;;5059940;28;20040;-60
2022/04/03 09:31:42;;;;;;;8.13;4.63;;;;;;;;;;5069482;28;20039;-59
2022/04/03 09:34:14;;;;;;;13.98;4.28;;;;;;;;;;5072171;28;20036;-60
2022/04/03 09:36:40;;;;;;;11.93;4.78;;;;;;;;;;5065740;28;20086;-60
2022/04/03 09:39:14;;;;;;;8.32;5.30;;;;;;;;;;5071360;28;20406;-59
2022/04/03 09:42:07;;;;;;;7.35;4.75;;;;;;;;;;5068849;28;20047;-60
2022/04/03 09:44:41;;;;;;;13.73;6.53;;;;;;;;;;5062405;28;20046;-60
2022/04/03 09:47:30;;;;;;;9.15;5.10;;;;;;;;;;5067293;28;20028;-60
2022/04/03 09:50:00;;;;;;;12.25;4.55;;;;;;;;;;5060640;28;20035;-61
2022/04/03 09:52:34;;;;;;;11.50;5.47;;;;;;;;;;5063937;28;20047;-61
2022/04/03 09:55:21;;;;;;;9.70;5.18;;;;;;;;;;5060325;28;20016;-60
2022/04/03 09:58:02;;;;;;;13.45;5.38;;;;;;;;;;5065598;28;20871;-58
2022/04/03 10:00:32;;;;;;;7.72;4.70;;;;;;;;;;5068704;28;20112;-59
2022/04/03 10:03:02;;;;;;;8.57;5.05;;;;;;;;;;5068173;28;20071;-58
2022/04/03 10:05:34;;;;;;;8.15;5.00;;;;;;;;;;5065695;28;20078;-60
2022/04/03 10:08:01;;;;;;;7.00;3.83;;;;;;;;;;5062662;28;20044;-60
2022/04/03 10:10:27;;;;;;;13.48;5.10;;;;;;;;;;5065408;28;20032;-61
2022/04/03 10:12:55;;;;;;;8.02;4.65;;;;;;;;;;5063473;28;20098;-60
2022/04/03 10:15:20;;;;;;;10.60;4.40;;;;;;;;;;5067040;28;20028;-61
2022/04/03 10:17:45;;;;;;;7.60;4.90;;;;;;;;;;5061586;28;20036;-61
2022/04/03 10:20:11;;;;;;;6.72;3.92;;;;;;;;;;5064591;28;20036;-60
2022/04/03 10:22:39;;;;;;;5.22;3.30;;;;;;;;;;5069225;28;20081;-61
2022/04/03 10:25:11;;;;;;;7.00;3.28;;;;;;;;;;5072947;28;20081;-61
2022/04/03 10:27:39;;;;;;;5.35;3.55;;;;;;;;;;5065089;28;20486;-61
2022/04/03 10:30:06;;;;;;;7.60;3.90;;;;;;;;;;5064422;28;20032;-61
2022/04/03 10:32:36;;;;;;;5.63;3.70;;;;;;;;;;5063715;28;20040;-61
2022/04/03 10:35:07;;;;;;;4.85;2.85;;;;;;;;;;5069062;28;20398;-60
2022/04/03 10:37:37;;;;;;;7.67;3.87;;;;;;;;;;5061705;28;20036;-60
2022/04/03 10:40:07;;;;;;;6.28;3.70;;;;;;;;;;5062669;28;20074;-61
2022/04/03 10:42:33;;;;;;;8.00;4.47;;;;;;;;;;5071212;28;20024;-61
2022/04/03 10:45:11;;;;;;;8.57;3.10;;;;;;;;;;5066584;28;20028;-60
2022/04/03 10:47:40;;;;;;;6.68;3.47;;;;;;;;;;5072222;28;20104;-60
2022/04/03 10:50:07;;;;;;;5.88;3.38;;;;;;;;;;5059357;28;20119;-60
2022/04/03 10:52:38;;;;;;;6.47;3.67;;;;;;;;;;5058800;28;20743;-62
2022/04/03 10:55:24;;;;;;;4.70;3.15;;;;;;;;;;5063971;28;20048;-62
2022/04/03 10:58:03;;;;;;;7.90;3.45;;;;;;;;;;5064029;28;20040;-62
2022/04/03 11:00:30;;;;;;;7.00;3.35;;;;;;;;;;5063222;28;20043;-62
2022/04/03 11:02:55;;;;;;;5.55;3.90;;;;;;;;;;5067563;28;20067;-62
2022/04/03 11:05:26;;;;;;;8.15;3.63;;;;;;;;;;5065963;28;20059;-62
2022/04/03 11:07:59;;;;;;;8.27;3.60;;;;;;;;;;5062953;28;20073;-62
2022/04/03 11:10:59;;;;;;;8.02;4.22;;;;;;;;;;5069210;28;20030;-62
2022/04/03 11:13:31;;;;;;;7.22;3.67;;;;;;;;;;5067589;28;20028;-62
2022/04/03 11:16:04;;;;;;;;;;;;;;;;;;5078286;28;20032;-62
2022/04/03 11:18:47;;;;;;;5.18;3.85;;;;;;;;;;5068785;28;19964;-62
2022/04/03 11:21:23;;;;;;;7.25;4.40;;;;;;;;;;5072705;28;20078;-62
2022/04/03 11:23:50;;;;;;;7.68;4.05;;;;;;;;;;5066953;28;20096;-62
2022/04/03 11:26:16;;;;;;;9.55;3.80;;;;;;;;;;5066844;28;20683;-60
2022/04/03 11:28:43;;;;;;;7.50;3.88;;;;;;;;;;5060885;28;20029;-59
2022/04/03 11:31:09;;;;;;;7.50;4.35;;;;;;;;;;5066211;28;20119;-61
2022/04/03 11:33:36;;;;;;;4.60;3.88;;;;;;;;;;5070165;28;20104;-61
2022/04/03 11:36:08;;;;;;;6.30;3.20;;;;;;;;;;5070359;28;20621;-62
2022/04/03 11:38:52;;;;;;;4.80;3.20;;;;;;;;;;5074193;28;20036;-61
2022/04/03 11:41:27;;;;;;;5.47;2.90;;;;;;;;;;5073128;28;20040;-61
2022/04/03 11:44:00;;;;;;;9.15;3.90;;;;;;;;;;5069588;28;20473;-62
2022/04/03 11:46:28;;;;;;;5.22;3.85;;;;;;;;;;5076832;28;21440;-61
2022/04/03 11:48:53;;;;;;;7.63;4.10;;;;;;;;;;5066422;28;20029;-59
2022/04/03 11:51:21;;;;;;;8.38;4.82;;;;;;;;;;5069207;28;20399;-61
2022/04/03 11:53:54;;;;;;;6.40;4.25;;;;;;;;;;5070136;28;20024;-61
2022/04/03 11:56:20;;;;;;;6.95;4.88;;;;;;;;;;5066794;28;20036;-61
2022/04/03 11:58:53;;;;;;;7.70;5.15;;;;;;;;;;5070735;28;20509;-61
2022/04/03 12:01:30;;;;;;;8.32;4.32;;;;;;;;;;5070961;28;20081;-61
2022/04/03 12:04:12;;;;;;;6.68;4.65;;;;;;;;;;5072171;28;20111;-61
2022/04/03 12:06:42;;;;;;;;;;;;;;;;;;5068530;28;20434;-61
2022/04/03 12:09:13;;;;;;;8.27;4.63;;;;;;;;;;5068673;28;19920;-60
2022/04/03 12:11:41;;;;;;;8.37;4.43;;;;;;;;;;5066420;28;20106;-61
2022/04/03 12:14:08;;;;;;;5.72;3.67;;;;;;;;;;5072142;28;20051;-61
2022/04/03 12:16:38;;;;;;;6.22;4.25;;;;;;;;;;5068435;28;20151;-61
2022/04/03 12:19:06;;;;;;;6.80;3.83;;;;;;;;;;5067176;28;20035;-61
2022/04/03 12:21:46;;;;;;;8.20;4.07;;;;;;;;;;5072532;28;20029;-61
2022/04/03 12:24:19;;;;;;;9.52;4.07;;;;;;;;;;5070924;28;20226;-61
2022/04/03 12:26:59;;;;;;;4.43;3.10;;;;;;;;;;5081061;28;20036;-60
2022/04/03 12:29:27;;;;;;;6.38;3.45;;;;;;;;;;5060909;28;20471;-60
2022/04/03 12:32:00;;;;;;;6.50;3.55;;;;;;;;;;5073268;28;20115;-61
2022/04/03 12:34:27;;;;;;;7.35;3.55;;;;;;;;;;5070546;28;20033;-61
2022/04/03 12:36:54;;;;;;;6.38;3.00;;;;;;;;;;5070524;28;20031;-61
2022/04/03 12:39:44;;;;;;;5.03;3.45;;;;;;;;;;5065296;28;20099;-61
2022/04/03 12:42:19;;;;;;;5.88;2.70;;;;;;;;;;5068789;28;20032;-60
2022/04/03 12:44:51;;;;;;;4.38;3.08;;;;;;;;;;5066261;28;20078;-61
2022/04/03 12:47:29;;;;;;;4.55;2.42;;;;;;;;;;5071557;28;20024;-60
2022/04/03 12:50:07;;;;;;;5.78;3.17;;;;;;;;;;5065940;28;20043;-61
2022/04/03 12:52:47;;;;;;;3.63;2.97;;;;;;;;;;5065368;28;20479;-61
2022/04/03 12:55:22;;;;;;;4.65;3.72;;;;;;;;;;5065848;28;20032;-61
2022/04/03 12:58:24;;;;;;;6.63;3.40;;;;;;;;;;5070590;28;20513;-61
2022/04/03 13:00:54;;;;;;;6.60;3.40;;;;;;;;;;5066280;28;20044;-61
2022/04/03 13:03:29;;;;;;;7.65;3.42;;;;;;;;;;5069810;28;20020;-61
2022/04/03 13:06:22;;;;;;;7.75;3.95;;;;;;;;;;5071581;28;20105;-60
2022/04/03 13:08:54;;;;;;;5.20;3.58;;;;;;;;;;5063562;28;20036;-61
2022/04/03 13:11:47;;;;;;;5.35;3.58;;;;;;;;;;5070879;28;20035;-61
2022/04/03 13:14:23;;;;;;;7.40;3.97;;;;;;;;;;5066995;28;20129;-61
2022/04/03 13:16:51;;;;;;;6.68;3.70;;;;;;;;;;5065501;28;20423;-61
2022/04/03 13:19:21;;;;;;;6.60;3.85;;;;;;;;;;5069730;28;20487;-60
2022/04/03 13:21:46;;;;;;;5.93;3.53;;;;;;;;;;5068252;28;20119;-61
2022/04/03 13:24:12;;;;;;;4.68;3.08;;;;;;;;;;5068688;28;20426;-61
2022/04/03 13:26:38;;;;;;;4.88;3.25;;;;;;;;;;5069364;28;20036;-62
2022/04/03 13:29:07;;;;;;;8.40;4.20;;;;;;;;;;5062114;28;20017;-62
2022/04/03 13:31:34;;;;;;;4.18;2.55;;;;;;;;;;5074831;28;20032;-61
2022/04/03 13:34:00;;;;;;;4.30;3.42;;;;;;;;;;5073025;28;20081;-61
2022/04/03 13:36:25;;;;;;;6.03;2.63;;;;;;;;;;5069747;28;20024;-61
2022/04/03 13:38:51;;;;;;;5.93;3.20;;;;;;;;;;5068347;28;20035;-61
2022/04/03 13:41:18;;;;;;;7.47;3.70;;;;;;;;;;5068720;28;20036;-60
2022/04/03 13:43:43;;;;;;;7.85;3.85;;;;;;;;;;5066830;28;20090;-61
2022/04/03 13:46:09;;;;;;;5.15;3.33;;;;;;;;;;5067807;28;20398;-61
2022/04/03 13:48:37;;;;;;;3.85;3.13;;;;;;;;;;5068794;28;20482;-61
2022/04/03 13:51:13;;;;;;;5.65;3.28;;;;;;;;;;5061890;28;20077;-61
2022/04/03 13:53:44;;;;;;;4.53;2.70;;;;;;;;;;5067098;28;20047;-61
2022/04/03 13:56:11;;;;;;;5.97;3.28;;;;;;;;;;5067297;28;20037;-61
2022/04/03 13:58:37;;;;;;;5.95;3.47;;;;;;;;;;5068730;28;20024;-61
2022/04/03 14:01:04;;;;;;;5.10;2.70;;;;;;;;;;5066589;28;20154;-61
2022/04/03 14:03:30;;;;;;;4.00;2.90;;;;;;;;;;5068697;28;21249;-60
2022/04/03 14:05:56;;;;;;;9.35;2.97;;;;;;;;;;5068094;28;20506;-61
2022/04/03 14:08:22;;;;;;;3.65;2.20;;;;;;;;;;5058296;28;20048;-61
2022/04/03 14:10:49;;;;;;;5.55;3.08;;;;;;;;;;5062995;28;20113;-61
2022/04/03 14:13:16;;;;;;;3.75;2.28;;;;;;;;;;5061152;28;22954;-61
2022/04/03 14:15:42;;;;;;;6.72;2.40;;;;;;;;;;5060079;28;20131;-58
2022/04/03 14:18:08;;;;;;;5.63;2.60;;;;;;;;;;5054652;28;20567;-59
2022/04/03 14:20:34;;;;;;;3.83;1.98;;;;;;;;;;5062772;28;20570;-60
2022/04/03 14:23:00;;;;;;;10.75;2.65;;;;;;;;;;5059668;28;20128;-61
2022/04/03 14:25:26;;;;;;;3.95;1.88;;;;;;;;;;5054887;28;20475;-61
2022/04/03 14:27:52;;;;;;;5.75;2.30;;;;;;;;;;5058315;28;20086;-61
2022/04/03 14:30:18;;;;;;;4.75;2.60;;;;;;;;;;5059867;28;20046;-59
2022/04/03 14:32:46;;;;;;;5.57;2.60;;;;;;;;;;5062871;28;20040;-60
2022/04/03 14:35:15;;;;;;;3.20;2.03;;;;;;;;;;5055102;28;20158;-59
2022/04/03 14:37:44;;;;;;;6.40;2.45;;;;;;;;;;5062384;28;20040;-59